Terminal Aerodrome Forecast
Issued by NWS

Home | Current Version | Previous Version | Graphics & Text | Print | Product List | Glossary On
Versions: 1 2 3 4 5 6 7 8 9 10 11 12 13 14 15 16 17
000
FTUS43 KGRB 182300
TAFATW
TAF
KATW 182337Z 1900/1924 36004KT P6SM FEW020
     FM190300 33004KT P6SM SCT250
     FM191500 31005KT P6SM SKC
     FM192200 24003KT P6SM SCT100=

USA.gov is the U.S. government's official web portal to all federal, state and local government web resources and services.